Time;durP1;ratioP1;P1;durP2;ratioP2;P2;SDS_P1;SDS_P2;PMS_P1;PMS_P2;Temp;Humidity;BMP_temperature;BMP_pressure;BME280_temperature;BME280_humidity;BME280_pressure;Samples;Min_cycle;Max_cycle;Signal;HPM_P1;HPM_P2
2021/03/29 06:32:29;;;;;;;;;;;;;;;;;;6257939;22;19930;-91
2021/03/29 06:35:00;;;;;;;;;;;;;;;;;;6258056;23;20321;-91
2021/03/29 06:37:27;;;;;;;;;;;;;;;;;;6214348;23;19907;-92
2021/03/29 06:39:53;;;;;;;;;;;;;;;;;;6213963;23;19903;-94
2021/03/29 06:42:19;;;;;;;;;;;;;;;;;;6217141;23;19908;-92
2021/03/29 06:44:46;;;;;;;;;;;;;;;;;;6214178;23;19908;-92
2021/03/29 06:47:12;;;;;;;;;;;;;;;;;;6215267;23;19907;-92
2021/03/29 06:49:38;;;;;;;;;;;;;;;;;;6212070;23;19918;-91
2021/03/29 06:52:04;;;;;;;;;;;;;;;;;;6210862;23;19911;-91
2021/03/29 06:54:30;;;;;;;;;;;;;;;;;;6211236;23;20381;-91
2021/03/29 06:56:56;;;;;;;;;;;;;;;;;;6211038;23;19907;-91
2021/03/29 06:59:25;;;;;;;;;;;;;;;;;;6213390;23;19914;-90
2021/03/29 07:01:51;;;;;;;;;;;;;;;;;;6215146;23;20167;-89
2021/03/29 07:04:17;;;;;;;;;;;;;;;;;;6214625;23;19903;-89
2021/03/29 07:06:44;;;;;;;;;;;;;;;;;;6210164;23;20309;-89
2021/03/29 07:09:10;;;;;;;;;;;;;;;;;;6211187;23;20389;-88
2021/03/29 07:11:36;;;;;;;;;;;;;;;;;;6213836;23;20314;-87
2021/03/29 07:14:02;;;;;;;;;;;;;;;;;;6214537;23;19917;-89
2021/03/29 07:16:29;;;;;;;;;;;;;;;;;;6216062;23;19903;-89
2021/03/29 07:18:55;;;;;;;;;;;;;;;;;;6214163;23;19904;-89
2021/03/29 07:21:21;;;;;;;;;;;;;;;;;;6215293;23;19907;-90
2021/03/29 07:23:47;;;;;;;;;;;;;;;;;;6210645;23;19914;-90
2021/03/29 07:26:13;;;;;;;;;;;;;;;;;;6214090;23;19904;-90
2021/03/29 07:28:39;;;;;;;;;;;;;;;;;;6216660;23;20306;-91
2021/03/29 07:31:06;;;;;;;;;;;;;;;;;;6215820;23;19919;-90
2021/03/29 07:33:32;;;;;;;;;;;;;;;;;;6215429;23;19904;-90
2021/03/29 07:36:02;;;;;;;;;;;;;;;;;;6213933;23;20033;-91
2021/03/29 07:38:28;;;;;;;;;;;;;;;;;;6214493;23;19923;-91
2021/03/29 07:40:54;;;;;;;;;;;;;;;;;;6215828;23;20301;-89
2021/03/29 07:43:21;;;;;;;;;;;;;;;;;;6216911;23;19908;-89
2021/03/29 07:45:48;;;;;;;;;;;;;;;;;;6217536;23;19966;-88
2021/03/29 07:48:14;;;;;;;;;;;;;;;;;;6217203;23;19931;-88
2021/03/29 07:50:43;;;;;;;;;;;;;;;;;;6217178;23;20325;-88
2021/03/29 07:53:18;;;;;;;;;;;;;;;;;;6218357;23;19915;-89
2021/03/29 07:55:45;;;;;;;;;;;;;;;;;;6217961;23;19978;-88
2021/03/29 07:58:13;;;;;;;;;;;;;;;;;;6217129;23;19907;-88
2021/03/29 08:00:39;;;;;;;;;;;;;;;;;;6217512;23;19904;-89
2021/03/29 08:03:06;;;;;;;;;;;;;;;;;;6216574;23;19946;-89
2021/03/29 08:05:32;;;;;;;;;;;;;;;;;;6218075;23;19904;-88
2021/03/29 08:07:58;;;;;;;;;;;;;;;;;;6218682;23;19903;-89
2021/03/29 08:10:24;;;;;;;;;;;;;;;;;;6212832;23;20348;-88
2021/03/29 08:12:52;;;;;;;;;;;;;;;;;;6243367;23;19974;-89
2021/03/29 08:15:21;;;;;;;;;;;;;;;;;;6216525;23;19938;-88
2021/03/29 08:17:53;;;;;;;;;;;;;;;;;;6215473;23;19910;-89
2021/03/29 08:20:22;;;;;;;;;;;;;;;;;;6213184;23;20345;-89
2021/03/29 08:22:48;;;;;;;;;;;;;;;;;;6213995;23;19908;-89
2021/03/29 08:25:15;;;;;;;;;;;;;;;;;;6214453;23;19926;-88
2021/03/29 08:27:44;;;;;;;;;;;;;;;;;;6214891;23;20316;-90
2021/03/29 08:30:13;;;;;;;;;;;;;;;;;;6243315;23;19911;-89
2021/03/29 08:32:49;;;;;;;;;;;;;;;;;;6216091;23;19961;-90
2021/03/29 08:35:22;;;;;;;;;;;;;;;;;;6216585;23;19907;-89
2021/03/29 08:37:51;;;;;;;;;;;;;;;;;;6213153;23;19986;-90
2021/03/29 08:40:20;;;;;;;;;;;;;;;;;;6213533;23;19903;-90
2021/03/29 08:42:49;;;;;;;;;;;;;;;;;;6216584;23;19914;-90
2021/03/29 08:45:15;;;;;;;;;;;;;;;;;;6218292;23;20642;-90
2021/03/29 08:47:41;;;;;;;;;;;;;;;;;;6217871;23;19903;-89
2021/03/29 08:50:07;;;;;;;;;;;;;;;;;;6244002;23;20325;-90
2021/03/29 08:52:34;;;;;;;;;;;;;;;;;;6214620;23;19907;-90
2021/03/29 08:55:00;;;;;;;;;;;;;;;;;;6216274;23;19919;-89
2021/03/29 08:57:28;;;;;;;;;;;;;;;;;;6215102;23;19946;-89
2021/03/29 08:59:55;;;;;;;;;;;;;;;;;;6213698;23;20325;-93
2021/03/29 09:05:17;;;;;;;;;;;;;;;;;;6245241;23;19973;-89
2021/03/29 09:07:46;;;;;;;;;;;;;;;;;;6213633;23;19910;-89
2021/03/29 09:10:12;;;;;;;;;;;;;;;;;;6216199;23;19988;-89
2021/03/29 09:12:38;;;;;;;;;;;;;;;;;;6215076;23;19903;-90
2021/03/29 09:18:07;;;;;;;;;;;;;;;;;;6193589;23;19915;-89
2021/03/29 09:20:33;;;;;;;;;;;;;;;;;;6214129;23;19903;-89
2021/03/29 09:23:02;;;;;;;;;;;;;;;;;;6213432;23;19963;-89
2021/03/29 09:25:30;;;;;;;;;;;;;;;;;;6214441;23;19960;-89
2021/03/29 09:27:56;;;;;;;;;;;;;;;;;;6214421;23;19918;-89
2021/03/29 09:30:22;;;;;;;;;;;;;;;;;;6213854;23;19914;-89
2021/03/29 09:32:49;;;;;;;;;;;;;;;;;;6213209;23;19953;-92
2021/03/29 09:35:21;;;;;;;;;;;;;;;;;;6215471;23;19914;-91
2021/03/29 09:37:47;;;;;;;;;;;;;;;;;;6212858;23;19907;-91
2021/03/29 09:40:13;;;;;;;;;;;;;;;;;;6214717;23;19904;-91
2021/03/29 09:42:43;;;;;;;;;;;;;;;;;;6213507;23;19911;-91
2021/03/29 09:45:09;;;;;;;;;;;;;;;;;;6213315;23;19903;-91
2021/03/29 09:47:38;;;;;;;;;;;;;;;;;;6216589;23;19903;-90
2021/03/29 09:50:13;;;;;;;;;;;;;;;;;;6215745;23;20314;-91
2021/03/29 09:52:40;;;;;;;;;;;;;;;;;;6216032;23;20321;-92
2021/03/29 09:55:09;;;;;;;;;;;;;;;;;;6214394;23;19915;-91
2021/03/29 09:57:35;;;;;;;;;;;;;;;;;;6214707;23;19903;-91
2021/03/29 10:00:02;;;;;;;;;;;;;;;;;;6214987;23;20451;-91
2021/03/29 10:02:28;;;;;;;;;;;;;;;;;;6216088;23;19907;-90
2021/03/29 10:04:57;;;;;;;;;;;;;;;;;;6216458;23;19903;-90
2021/03/29 10:07:23;;;;;;;;;;;;;;;;;;6215313;23;19904;-90
2021/03/29 10:09:49;;;;;;;;;;;;;;;;;;6215492;23;20244;-95
2021/03/29 10:12:15;;;;;;;;;;;;;;;;;;6218258;23;19903;-91
2021/03/29 10:14:45;;;;;;;;;;;;;;;;;;6216438;23;20001;-91
2021/03/29 10:17:17;;;;;;;;;;;;;;;;;;6217047;23;20444;-92
2021/03/29 10:19:43;;;;;;;;;;;;;;;;;;6217458;23;19907;-91
2021/03/29 10:22:19;;;;;;;;;;;;;;;;;;6218594;23;19969;-92
2021/03/29 10:24:45;;;;;;;;;;;;;;;;;;6217506;23;19908;-90
2021/03/29 10:27:11;;;;;;;;;;;;;;;;;;6217320;23;19973;-91
2021/03/29 10:29:57;;;;;;;;;;;;;;;;;;6216060;23;19914;-91
2021/03/29 10:32:36;;;;;;;;;;;;;;;;;;;;;
2021/03/29 10:35:16;;;;;;;;;;;;;;;;;;;;;
2021/03/29 10:54:45;;;;;;;;;;;;;;;;;;6245836;23;19927;-93
2021/03/29 11:00:10;;;;;;;;;;;;;;;;;;6245666;23;19909;-92
2021/03/29 11:02:40;;;;;;;;;;;;;;;;;;6215835;23;19911;-92
2021/03/29 11:05:19;;;;;;;;;;;;;;;;;;;;;
2021/03/29 11:13:38;;;;;;;;;;;;;;;;;;6245645;23;19911;-91
2021/03/29 11:16:12;;;;;;;;;;;;;;;;;;6244727;23;19910;-91
2021/03/29 11:21:30;;;;;;;;;;;;;;;;;;6244986;23;19927;-91
2021/03/29 11:23:56;;;;;;;;;;;;;;;;;;6217066;23;20321;-90
2021/03/29 11:26:22;;;;;;;;;;;;;;;;;;6218257;23;20329;-90
2021/03/29 11:28:53;;;;;;;;;;;;;;;;;;6244424;23;19907;-90
2021/03/29 11:31:21;;;;;;;;;;;;;;;;;;6217963;23;20023;-90
2021/03/29 11:33:47;;;;;;;;;;;;;;;;;;6216947;23;19957;-90
2021/03/29 11:36:17;;;;;;;;;;;;;;;;;;6218597;23;19954;-90
2021/03/29 11:38:43;;;;;;;;;;;;;;;;;;6217596;23;19907;-91
2021/03/29 11:41:20;;;;;;;;;;;;;;;;;;6218016;23;19914;-91
2021/03/29 11:46:44;;;;;;;;;;;;;;;;;;6244977;23;20340;-91
2021/03/29 11:49:13;;;;;;;;;;;;;;;;;;6217501;23;19912;-90
2021/03/29 11:51:43;;;;;;;;;;;;;;;;;;6214896;23;19958;-90
2021/03/29 11:54:09;;;;;;;;;;;;;;;;;;6217301;23;19982;-90
2021/03/29 11:56:35;;;;;;;;;;;;;;;;;;6218336;23;19911;-90
2021/03/29 11:59:01;;;;;;;;;;;;;;;;;;6217239;23;19903;-91
2021/03/29 12:01:49;;;;;;;;;;;;;;;;;;6217966;23;19904;-90
2021/03/29 12:04:29;;;;;;;;;;;;;;;;;;;;;
2021/03/29 12:07:01;;;;;;;;;;;;;;;;;;6244007;23;19907;-91
2021/03/29 12:09:43;;;;;;;;;;;;;;;;;;;;;
2021/03/29 12:12:04;;;;;;;;;;;;;;;;;;6244390;23;19914;-91
2021/03/29 12:14:30;;;;;;;;;;;;;;;;;;6216852;23;19907;-91
2021/03/29 12:16:56;;;;;;;;;;;;;;;;;;6217932;23;19940;-91
2021/03/29 12:19:25;;;;;;;;;;;;;;;;;;6218110;23;19908;-91
2021/03/29 12:21:52;;;;;;;;;;;;;;;;;;6216643;23;19969;-91
2021/03/29 12:24:24;;;;;;;;;;;;;;;;;;6217439;23;19978;-91
2021/03/29 12:26:50;;;;;;;;;;;;;;;;;;6217228;23;20211;-91
2021/03/29 12:29:38;;;;;;;;;;;;;;;;;;6217485;23;19958;-90
2021/03/29 12:32:11;;;;;;;;;;;;;;;;;;6242680;23;19919;-90
2021/03/29 12:34:46;;;;;;;;;;;;;;;;;;6217292;23;19983;-90
2021/03/29 12:37:15;;;;;;;;;;;;;;;;;;6216986;23;19927;-88
2021/03/29 12:39:45;;;;;;;;;;;;;;;;;;6217097;23;19903;-90
2021/03/29 12:42:12;;;;;;;;;;;;;;;;;;6218320;23;19903;-90
2021/03/29 12:44:38;;;;;;;;;;;;;;;;;;6218705;23;19974;-90
2021/03/29 12:47:11;;;;;;;;;;;;;;;;;;6215992;23;19930;-90
2021/03/29 12:49:44;;;;;;;;;;;;;;;;;;6216840;23;19918;-90
2021/03/29 12:52:10;;;;;;;;;;;;;;;;;;6218157;23;19911;-90
2021/03/29 12:54:42;;;;;;;;;;;;;;;;;;6217715;23;19907;-91
2021/03/29 12:57:18;;;;;;;;;;;;;;;;;;;;;
2021/03/29 12:59:50;;;;;;;;;;;;;;;;;;6243936;23;19979;-91
2021/03/29 13:02:19;;;;;;;;;;;;;;;;;;6217185;23;19911;-91
2021/03/29 13:04:45;;;;;;;;;;;;;;;;;;6215130;23;19910;-91
2021/03/29 13:07:23;;;;;;;;;;;;;;;;;;6217505;23;19904;-90
2021/03/29 13:12:21;;;;;;;;;;;;;;;;;;6255654;23;20206;-90
2021/03/29 13:14:53;;;;;;;;;;;;;;;;;;6216790;23;19920;-90
2021/03/29 13:17:19;;;;;;;;;;;;;;;;;;6217256;23;19974;-90
2021/03/29 13:19:45;;;;;;;;;;;;;;;;;;6217708;23;19957;-90
2021/03/29 13:22:12;;;;;;;;;;;;;;;;;;6216613;23;19907;-90
2021/03/29 13:24:39;;;;;;;;;;;;;;;;;;6218437;23;19904;-90
2021/03/29 13:27:08;;;;;;;;;;;;;;;;;;6217840;23;19911;-90
2021/03/29 13:29:34;;;;;;;;;;;;;;;;;;6218414;23;19908;-90
2021/03/29 13:32:02;;;;;;;;;;;;;;;;;;6217091;23;19915;-90
2021/03/29 13:34:31;;;;;;;;;;;;;;;;;;6217708;23;19903;-90
2021/03/29 13:37:00;;;;;;;;;;;;;;;;;;6217352;22;19934;-90
2021/03/29 13:39:29;;;;;;;;;;;;;;;;;;6218919;23;19912;-89
2021/03/29 13:41:59;;;;;;;;;;;;;;;;;;6243697;23;19915;-90
2021/03/29 13:44:28;;;;;;;;;;;;;;;;;;6215670;23;19903;-90
2021/03/29 13:46:57;;;;;;;;;;;;;;;;;;6217396;23;20011;-90
2021/03/29 13:49:35;;;;;;;;;;;;;;;;;;6243512;23;19907;-89
2021/03/29 13:52:09;;;;;;;;;;;;;;;;;;6216907;23;19907;-90
2021/03/29 13:54:39;;;;;;;;;;;;;;;;;;6218591;23;19904;-90
2021/03/29 13:57:05;;;;;;;;;;;;;;;;;;6216961;23;19907;-89
2021/03/29 13:59:34;;;;;;;;;;;;;;;;;;6216067;23;20010;-90
2021/03/29 14:02:09;;;;;;;;;;;;;;;;;;6241921;23;19953;-89
2021/03/29 14:04:41;;;;;;;;;;;;;;;;;;6219200;23;19939;-89
2021/03/29 14:07:15;;;;;;;;;;;;;;;;;;6218455;23;19908;-90
2021/03/29 14:09:44;;;;;;;;;;;;;;;;;;6218272;23;19913;-90
2021/03/29 14:15:10;;;;;;;;;;;;;;;;;;6245138;23;19962;-90
2021/03/29 14:17:36;;;;;;;;;;;;;;;;;;6217982;23;19903;-90
2021/03/29 14:20:08;;;;;;;;;;;;;;;;;;6215398;23;20365;-90
2021/03/29 14:22:37;;;;;;;;;;;;;;;;;;6217134;23;19926;-90
2021/03/29 14:25:03;;;;;;;;;;;;;;;;;;6217529;23;20343;-90
2021/03/29 14:27:29;;;;;;;;;;;;;;;;;;6219865;23;19903;-90
2021/03/29 14:29:55;;;;;;;;;;;;;;;;;;6218177;23;19994;-90
2021/03/29 14:32:23;;;;;;;;;;;;;;;;;;6218643;23;19916;-90
2021/03/29 14:37:53;;;;;;;;;;;;;;;;;;6248499;22;19903;-90
2021/03/29 14:43:04;;;;;;;;;;;;;;;;;;6255916;23;20340;-90
2021/03/29 14:45:30;;;;;;;;;;;;;;;;;;6219087;23;19908;-90
2021/03/29 14:47:57;;;;;;;;;;;;;;;;;;6218955;23;19990;-90
2021/03/29 14:50:23;;;;;;;;;;;;;;;;;;6218567;23;19908;-91
2021/03/29 14:52:49;;;;;;;;;;;;;;;;;;6217265;23;19982;-90
2021/03/29 14:55:15;;;;;;;;;;;;;;;;;;6218743;23;20059;-90
2021/03/29 14:57:44;;;;;;;;;;;;;;;;;;6219056;23;19958;-90
2021/03/29 15:00:11;;;;;;;;;;;;;;;;;;6242606;23;19915;-91
2021/03/29 15:02:37;;;;;;;;;;;;;;;;;;6213841;23;19908;-91
2021/03/29 15:05:05;;;;;;;;;;;;;;;;;;6215784;23;19915;-91
2021/03/29 15:07:31;;;;;;;;;;;;;;;;;;6217584;23;19908;-90
2021/03/29 15:09:57;;;;;;;;;;;;;;;;;;6217922;23;19965;-91
2021/03/29 15:12:30;;;;;;;;;;;;;;;;;;6219346;23;19910;-91
2021/03/29 15:15:00;;;;;;;;;;;;;;;;;;6218517;23;19975;-90
2021/03/29 15:17:28;;;;;;;;;;;;;;;;;;6219257;23;19910;-90
2021/03/29 15:19:54;;;;;;;;;;;;;;;;;;6218891;23;19907;-90
2021/03/29 15:22:21;;;;;;;;;;;;;;;;;;6219313;23;19903;-91
2021/03/29 15:24:47;;;;;;;;;;;;;;;;;;6217392;23;20337;-91
2021/03/29 15:27:14;;;;;;;;;;;;;;;;;;6219352;23;20310;-91
2021/03/29 15:29:44;;;;;;;;;;;;;;;;;;6245682;23;19951;-91
2021/03/29 15:32:13;;;;;;;;;;;;;;;;;;6217128;23;19916;-91
2021/03/29 15:34:42;;;;;;;;;;;;;;;;;;6216031;23;19982;-90
2021/03/29 15:37:08;;;;;;;;;;;;;;;;;;6215213;23;19930;-91
2021/03/29 15:39:34;;;;;;;;;;;;;;;;;;6216289;23;19904;-90
2021/03/29 15:42:01;;;;;;;;;;;;;;;;;;6214902;23;19914;-90
2021/03/29 15:44:29;;;;;;;;;;;;;;;;;;6217387;23;19958;-90
2021/03/29 15:46:55;;;;;;;;;;;;;;;;;;6215136;23;19911;-95
2021/03/29 15:49:24;;;;;;;;;;;;;;;;;;6217822;23;19912;-89
2021/03/29 15:51:51;;;;;;;;;;;;;;;;;;6216522;23;19914;-90
2021/03/29 15:54:17;;;;;;;;;;;;;;;;;;6216328;23;19907;-89
2021/03/29 15:59:15;;;;;;;;;;;;;;;;;;6253488;23;19907;-89
2021/03/29 16:01:43;;;;;;;;;;;;;;;;;;6212644;23;20307;-89
2021/03/29 16:04:10;;;;;;;;;;;;;;;;;;6215409;23;19908;-88
2021/03/29 16:06:36;;;;;;;;;;;;;;;;;;6215053;23;19912;-89
2021/03/29 16:09:03;;;;;;;;;;;;;;;;;;6214848;23;19911;-90
2021/03/29 16:11:29;;;;;;;;;;;;;;;;;;6214690;23;19935;-90
2021/03/29 16:13:58;;;;;;;;;;;;;;;;;;6215538;23;19949;-90
2021/03/29 16:16:24;;;;;;;;;;;;;;;;;;6215553;23;19908;-90
2021/03/29 16:18:50;;;;;;;;;;;;;;;;;;6213892;23;19911;-89
2021/03/29 16:21:16;;;;;;;;;;;;;;;;;;6215207;23;19908;-89
2021/03/29 16:23:42;;;;;;;;;;;;;;;;;;6214913;23;19908;-89
2021/03/29 16:26:09;;;;;;;;;;;;;;;;;;6212794;23;20289;-89
2021/03/29 16:28:35;;;;;;;;;;;;;;;;;;6214665;23;19903;-90
2021/03/29 16:31:02;;;;;;;;;;;;;;;;;;6215571;23;19990;-89
2021/03/29 16:33:28;;;;;;;;;;;;;;;;;;6215485;23;19965;-89
2021/03/29 16:35:54;;;;;;;;;;;;;;;;;;6214956;23;19907;-89
2021/03/29 16:38:21;;;;;;;;;;;;;;;;;;6214762;23;19907;-89
2021/03/29 16:40:47;;;;;;;;;;;;;;;;;;6215068;23;20421;-88
2021/03/29 16:43:13;;;;;;;;;;;;;;;;;;6217435;23;20306;-88
2021/03/29 16:45:39;;;;;;;;;;;;;;;;;;6216974;23;20241;-89
2021/03/29 16:48:05;;;;;;;;;;;;;;;;;;6215104;23;20231;-89
2021/03/29 16:50:31;;;;;;;;;;;;;;;;;;6217153;23;19907;-89
2021/03/29 16:52:58;;;;;;;;;;;;;;;;;;6215303;23;20256;-89
2021/03/29 16:55:24;;;;;;;;;;;;;;;;;;6215187;23;19982;-90
2021/03/29 16:57:50;;;;;;;;;;;;;;;;;;6214248;23;20280;-89
2021/03/29 17:00:16;;;;;;;;;;;;;;;;;;6214303;23;20293;-89
2021/03/29 17:02:45;;;;;;;;;;;;;;;;;;6212276;23;19961;-88
2021/03/29 17:05:11;;;;;;;;;;;;;;;;;;6215069;23;19950;-90
2021/03/29 17:07:37;;;;;;;;;;;;;;;;;;6215342;23;19903;-89
2021/03/29 17:10:04;;;;;;;;;;;;;;;;;;6212990;23;20573;-88
2021/03/29 17:12:35;;;;;;;;;;;;;;;;;;6214872;23;19926;-90
2021/03/29 17:15:04;;;;;;;;;;;;;;;;;;6214216;23;20736;-89
2021/03/29 17:17:30;;;;;;;;;;;;;;;;;;6215484;23;19908;-89
2021/03/29 17:19:56;;;;;;;;;;;;;;;;;;6214107;23;19910;-90
2021/03/29 17:22:22;;;;;;;;;;;;;;;;;;6211763;23;19922;-88
2021/03/29 17:24:48;;;;;;;;;;;;;;;;;;6209276;23;19907;-90
2021/03/29 17:27:14;;;;;;;;;;;;;;;;;;6209936;23;19986;-91
2021/03/29 17:29:40;;;;;;;;;;;;;;;;;;6208528;23;19911;-91
2021/03/29 17:32:06;;;;;;;;;;;;;;;;;;6209153;23;20257;-91
2021/03/29 17:34:33;;;;;;;;;;;;;;;;;;6208606;23;19907;-91
2021/03/29 17:36:59;;;;;;;;;;;;;;;;;;6208321;22;19907;-91
2021/03/29 17:39:25;;;;;;;;;;;;;;;;;;6209557;23;19935;-91
2021/03/29 17:41:51;;;;;;;;;;;;;;;;;;6208266;23;19908;-91
2021/03/29 17:44:17;;;;;;;;;;;;;;;;;;6210327;23;19908;-91
2021/03/29 17:46:43;;;;;;;;;;;;;;;;;;6215327;23;20356;-91
2021/03/29 17:49:09;;;;;;;;;;;;;;;;;;6212816;23;20332;-91
2021/03/29 17:51:36;;;;;;;;;;;;;;;;;;6209761;23;20388;-91
2021/03/29 17:54:02;;;;;;;;;;;;;;;;;;6214498;23;20013;-91
2021/03/29 17:56:28;;;;;;;;;;;;;;;;;;6214043;23;19987;-91
2021/03/29 17:58:54;;;;;;;;;;;;;;;;;;6212082;23;20382;-91
2021/03/29 18:01:21;;;;;;;;;;;;;;;;;;6213415;23;19909;-91
2021/03/29 18:03:47;;;;;;;;;;;;;;;;;;6209105;23;19907;-91
2021/03/29 18:06:13;;;;;;;;;;;;;;;;;;6214372;23;19904;-91
2021/03/29 18:08:39;;;;;;;;;;;;;;;;;;6212918;23;19907;-91
2021/03/29 18:11:05;;;;;;;;;;;;;;;;;;6240453;23;19918;-91
2021/03/29 18:13:31;;;;;;;;;;;;;;;;;;6212989;23;19903;-92
2021/03/29 18:15:58;;;;;;;;;;;;;;;;;;6214022;23;19908;-91
2021/03/29 18:18:25;;;;;;;;;;;;;;;;;;6212597;23;19914;-91
2021/03/29 18:20:55;;;;;;;;;;;;;;;;;;6236354;23;19907;-92
2021/03/29 18:23:22;;;;;;;;;;;;;;;;;;6209952;23;19919;-92
2021/03/29 18:25:48;;;;;;;;;;;;;;;;;;6211963;23;20308;-91
2021/03/29 18:28:14;;;;;;;;;;;;;;;;;;6211977;23;19911;-92
2021/03/29 18:30:43;;;;;;;;;;;;;;;;;;6212992;23;19907;-92
2021/03/29 18:33:10;;;;;;;;;;;;;;;;;;6208585;23;19927;-92
2021/03/29 18:35:39;;;;;;;;;;;;;;;;;;6211785;23;19958;-93
2021/03/29 18:38:05;;;;;;;;;;;;;;;;;;6210444;23;19903;-93
2021/03/29 18:40:34;;;;;;;;;;;;;;;;;;6211523;23;19904;-92
2021/03/29 18:43:00;;;;;;;;;;;;;;;;;;6213716;23;19903;-93
2021/03/29 18:45:27;;;;;;;;;;;;;;;;;;6215954;23;20317;-91
2021/03/29 18:47:53;;;;;;;;;;;;;;;;;;6215695;23;19907;-92
2021/03/29 18:50:19;;;;;;;;;;;;;;;;;;6211846;23;19915;-92
2021/03/29 18:52:51;;;;;;;;;;;;;;;;;;6238492;23;19907;-92
2021/03/29 18:55:22;;;;;;;;;;;;;;;;;;6213149;23;19907;-93
2021/03/29 18:57:48;;;;;;;;;;;;;;;;;;6214012;23;19907;-92
2021/03/29 19:00:14;;;;;;;;;;;;;;;;;;6214234;23;19939;-93
2021/03/29 19:02:51;;;;;;;;;;;;;;;;;;6208096;23;20317;-93
2021/03/29 19:05:17;;;;;;;;;;;;;;;;;;6214618;23;19911;-92
2021/03/29 19:07:43;;;;;;;;;;;;;;;;;;6209495;23;19931;-93
2021/03/29 19:10:09;;;;;;;;;;;;;;;;;;6212004;23;20328;-92
2021/03/29 19:12:41;;;;;;;;;;;;;;;;;;6211064;23;19918;-93
2021/03/29 19:15:10;;;;;;;;;;;;;;;;;;6213924;23;19970;-92
2021/03/29 19:17:37;;;;;;;;;;;;;;;;;;6219770;23;19912;-91
2021/03/29 19:20:04;;;;;;;;;;;;;;;;;;6224767;23;19904;-90
2021/03/29 19:22:32;;;;;;;;;;;;;;;;;;6228788;23;19903;-91
2021/03/29 19:24:59;;;;;;;;;;;;;;;;;;6234148;23;19903;-92
2021/03/29 19:30:08;;;;;;;;;;;;;;;;;;6269017;22;19915;-89
2021/03/29 19:52:38;;;;;;;;;;;;;;;;;;6274598;22;19899;-90
2021/03/29 20:09:17;;;;;;;;;;;;;;;;;;6270506;22;19914;-91
2021/03/29 20:11:46;;;;;;;;;;;;;;;;;;6236274;23;20280;-91
2021/03/29 20:14:15;;;;;;;;;;;;;;;;;;6242668;23;19927;-89
2021/03/29 20:19:35;;;;;;;;;;;;;;;;;;6269720;22;19915;-90
2021/03/29 20:22:02;;;;;;;;;;;;;;;;;;6253162;23;19927;-90
2021/03/29 20:24:32;;;;;;;;;;;;;;;;;;6240317;23;19908;-90
2021/03/29 20:27:02;;;;;;;;;;;;;;;;;;6238987;23;19907;-90
2021/03/29 20:29:32;;;;;;;;;;;;;;;;;;6232137;23;19912;-90
2021/03/29 20:32:00;;;;;;;;;;;;;;;;;;6236265;23;19934;-89
2021/03/29 20:34:32;;;;;;;;;;;;;;;;;;6271143;22;19908;-91
2021/03/29 20:37:10;;;;;;;;;;;;;;;;;;6270101;22;19910;-90
2021/03/29 20:39:39;;;;;;;;;;;;;;;;;;6238360;23;19935;-92
2021/03/29 20:42:06;;;;;;;;;;;;;;;;;;6269572;23;19904;-91
2021/03/29 20:44:34;;;;;;;;;;;;;;;;;;6239419;23;19923;-92
2021/03/29 20:47:07;;;;;;;;;;;;;;;;;;6232085;23;19907;-90
2021/03/29 20:49:37;;;;;;;;;;;;;;;;;;6241102;23;19920;-90
2021/03/29 20:55:14;;;;;;;;;;;;;;;;;;6256140;22;19962;-90
